Time;durP1;ratioP1;P1;durP2;ratioP2;P2;SDS_P1;SDS_P2;PMS_P1;PMS_P2;Temp;Humidity;BMP_temperature;BMP_pressure;BME280_temperature;BME280_humidity;BME280_pressure;Samples;Min_cycle;Max_cycle;Signal;HPM_P1;HPM_P2
2022/02/21 00:01:47;;;;;;;3.67;1.10;;;;;;;5.52;93.98;99468.13;5044622;28;20020;-78
2022/02/21 00:04:12;;;;;;;7.72;1.00;;;;;;;5.51;92.52;99475.97;5056269;28;20029;-78
2022/02/21 00:06:38;;;;;;;11.90;1.42;;;;;;;5.46;92.88;99466.16;5031478;28;20040;-78
2022/02/21 00:09:03;;;;;;;7.72;1.42;;;;;;;5.39;92.91;99470.31;5067152;28;20051;-78
2022/02/21 00:11:29;;;;;;;12.70;1.55;;;;;;;5.35;92.54;99487.81;5033375;28;20024;-78
2022/02/21 00:13:54;;;;;;;12.90;1.42;;;;;;;5.38;92.08;99489.25;5048164;28;20051;-78
2022/02/21 00:16:20;;;;;;;6.93;1.45;;;;;;;5.35;91.60;99500.66;5039866;28;20036;-76
2022/02/21 00:18:45;;;;;;;8.57;2.03;;;;;;;5.42;91.29;99511.13;5046867;28;20044;-77
2022/02/21 00:21:11;;;;;;;12.70;1.98;;;;;;;5.34;91.06;99506.75;5048833;28;20036;-76
2022/02/21 00:23:36;;;;;;;10.55;1.40;;;;;;;5.42;90.67;99503.41;5048902;28;20564;-79
2022/02/21 00:26:02;;;;;;;11.88;1.42;;;;;;;5.42;89.69;99514.50;5029568;28;20040;-77
2022/02/21 00:28:27;;;;;;;13.85;1.88;;;;;;;5.46;89.69;99523.53;5041076;28;20025;-78
2022/02/21 00:30:53;;;;;;;12.57;1.33;;;;;;;5.40;89.46;99515.63;5049281;28;20474;-77
2022/02/21 00:33:19;;;;;;;10.30;1.42;;;;;;;5.53;89.81;99554.56;5047313;28;20032;-76
2022/02/21 00:35:45;;;;;;;6.18;1.30;;;;;;;5.53;90.45;99572.56;5040891;28;20035;-79
2022/02/21 00:38:10;;;;;;;9.15;1.48;;;;;;;5.51;91.21;99589.91;5058159;28;20406;-80
2022/02/21 00:40:36;;;;;;;7.03;1.10;;;;;;;5.22;91.48;99552.47;5015715;28;20040;-81
2022/02/21 00:43:01;;;;;;;9.05;1.63;;;;;;;5.14;91.27;99554.19;5037962;28;20032;-82
2022/02/21 00:45:27;;;;;;;6.30;1.20;;;;;;;5.05;92.46;99582.41;5053894;28;20037;-83
2022/02/21 00:47:52;;;;;;;8.05;1.05;;;;;;;4.96;92.45;99592.78;5036464;28;20110;-81
2022/02/21 00:50:19;;;;;;;8.27;1.02;;;;;;;4.97;92.01;99576.38;5056204;28;20402;-81
2022/02/21 00:52:44;;;;;;;6.55;0.68;;;;;;;4.96;92.30;99562.75;5039649;28;20433;-82
2022/02/21 00:55:10;;;;;;;10.65;1.38;;;;;;;4.91;92.12;99572.66;5050641;28;20051;-78
2022/02/21 00:57:35;;;;;;;5.88;1.00;;;;;;;4.97;90.96;99578.97;5036556;28;20047;-80
2022/02/21 01:00:01;;;;;;;15.68;2.10;;;;;;;4.94;90.71;99586.97;5053689;28;20035;-80
2022/02/21 01:02:27;;;;;;;12.45;1.55;;;;;;;4.88;91.07;99583.25;5050152;28;20028;-79
2022/02/21 01:04:52;;;;;;;7.97;1.13;;;;;;;4.86;90.96;99590.28;5049300;28;20048;-79
2022/02/21 01:07:18;;;;;;;14.05;1.67;;;;;;;4.80;89.81;99591.69;5052209;28;20051;-81
2022/02/21 01:09:43;;;;;;;13.20;1.25;;;;;;;4.79;89.56;99602.13;5049842;28;20531;-79
2022/02/21 01:12:08;;;;;;;5.70;1.52;;;;;;;4.78;89.32;99596.16;5053245;28;20367;-78
2022/02/21 01:14:36;;;;;;;13.98;1.70;;;;;;;4.80;89.05;99596.84;5066485;28;20047;-79
2022/02/21 01:17:01;;;;;;;10.52;1.48;;;;;;;4.74;88.20;99602.53;5033283;28;20115;-78
2022/02/21 01:19:26;;;;;;;7.30;1.10;;;;;;;4.70;87.33;99610.69;5032472;28;20188;-80
2022/02/21 01:21:52;;;;;;;8.38;1.33;;;;;;;4.67;86.78;99622.88;5066725;28;20071;-78
2022/02/21 01:24:17;;;;;;;11.70;1.48;;;;;;;4.69;86.10;99630.44;5039392;28;20522;-80
2022/02/21 01:26:43;;;;;;;18.33;1.88;;;;;;;4.71;86.08;99628.53;5032233;28;20557;-78
2022/02/21 01:29:09;;;;;;;15.23;1.42;;;;;;;4.64;84.86;99628.28;5035642;28;20478;-77
2022/02/21 01:31:35;;;;;;;18.00;2.03;;;;;;;4.57;84.67;99644.44;5045347;28;20043;-78
2022/02/21 01:34:00;;;;;;;11.82;1.50;;;;;;;4.63;84.62;99642.09;5048677;28;20028;-79
2022/02/21 01:36:26;;;;;;;11.20;1.30;;;;;;;4.51;84.89;99652.72;5047180;28;20036;-79
2022/02/21 01:38:51;;;;;;;19.85;2.45;;;;;;;4.44;85.15;99649.91;5046451;28;20363;-77
2022/02/21 01:41:17;;;;;;;19.92;1.77;;;;;;;4.53;84.51;99649.03;5052994;28;20552;-78
2022/02/21 01:43:42;;;;;;;25.05;2.65;;;;;;;4.51;84.66;99668.13;5034845;28;20245;-76
2022/02/21 01:46:08;;;;;;;18.63;2.50;;;;;;;4.48;83.13;99639.22;5049505;28;20047;-77
2022/02/21 01:48:33;;;;;;;23.40;2.42;;;;;;;4.55;83.52;99646.34;5031451;28;20086;-76
2022/02/21 01:50:59;;;;;;;14.63;2.22;;;;;;;4.41;83.20;99648.44;5043735;28;20576;-76
2022/02/21 01:53:24;;;;;;;18.88;2.45;;;;;;;4.46;83.08;99653.97;5063860;28;20032;-76
2022/02/21 01:55:51;;;;;;;20.05;2.22;;;;;;;4.46;82.33;99661.66;5028016;28;20386;-76
2022/02/21 01:58:17;;;;;;;16.65;1.90;;;;;;;4.51;82.99;99665.56;5043642;28;20039;-78
2022/02/21 02:00:43;;;;;;;18.45;2.33;;;;;;;4.46;81.38;99669.38;5064324;28;20051;-77
2022/02/21 02:03:08;;;;;;;17.25;2.30;;;;;;;4.38;80.94;99664.13;5061199;28;20032;-77
2022/02/21 02:05:34;;;;;;;20.92;2.83;;;;;;;4.42;80.61;99672.34;5043793;28;20086;-76
2022/02/21 02:08:00;;;;;;;15.38;3.40;;;;;;;4.33;81.05;99657.81;5063769;28;20029;-79
2022/02/21 02:10:26;;;;;;;20.35;2.40;;;;;;;4.33;80.04;99658.59;5051562;28;20036;-77
2022/02/21 02:12:51;;;;;;;16.90;2.10;;;;;;;4.40;79.26;99669.13;5046684;28;20624;-78
2022/02/21 02:15:19;;;;;;;16.17;2.50;;;;;;;4.38;79.83;99669.25;5045236;28;20655;-76
2022/02/21 02:17:44;;;;;;;17.00;2.85;;;;;;;4.41;79.15;99666.41;5047597;28;20585;-76
2022/02/21 02:20:18;;;;;;;31.80;4.80;;;;;;;4.34;79.62;99665.38;5065618;28;20624;-70
2022/02/21 02:22:45;;;;;;;26.58;3.33;;;;;;;4.39;79.62;99663.19;5059574;28;20045;-70
2022/02/21 02:25:10;;;;;;;21.85;3.22;;;;;;;4.40;79.86;99661.41;5045537;28;20587;-71
2022/02/21 02:27:36;;;;;;;18.75;2.65;;;;;;;4.40;79.26;99674.25;5040649;28;20033;-72
2022/02/21 02:30:03;;;;;;;17.88;2.63;;;;;;;4.43;80.42;99684.25;5034601;28;20021;-70
2022/02/21 02:32:29;;;;;;;22.67;2.25;;;;;;;4.46;80.30;99686.50;5021004;28;20075;-71
2022/02/21 02:34:55;;;;;;;27.00;2.60;;;;;;;4.58;80.08;99690.50;5034300;28;20041;-70
2022/02/21 02:37:22;;;;;;;15.77;3.08;;;;;;;4.56;79.41;99704.44;5030355;28;20029;-71
2022/02/21 02:39:49;;;;;;;21.63;2.00;;;;;;;4.50;78.64;99713.50;5042334;28;20140;-71
2022/02/21 02:42:14;;;;;;;19.35;2.75;;;;;;;4.42;79.27;99727.06;5045147;28;20029;-71
2022/02/21 02:44:41;;;;;;;19.27;2.72;;;;;;;4.35;81.18;99738.03;5037634;28;20582;-72
2022/02/21 02:47:08;;;;;;;19.95;2.22;;;;;;;3.72;85.44;99752.25;5039685;28;20115;-71
2022/02/21 02:49:34;;;;;;;8.38;1.20;;;;;;;3.44;87.74;99747.00;5037744;28;20029;-71
2022/02/21 02:52:00;;;;;;;7.57;1.27;;;;;;;3.21;89.49;99741.34;5039776;28;20034;-71
2022/02/21 02:54:25;;;;;;;8.55;1.63;;;;;;;2.77;89.09;99733.19;5041938;28;20044;-73
2022/02/21 02:56:51;;;;;;;5.38;1.35;;;;;;;2.57;90.41;99724.66;5041544;28;20040;-72
2022/02/21 02:59:17;;;;;;;9.82;1.48;;;;;;;2.62;90.76;99719.97;5034450;28;20506;-71
2022/02/21 03:01:42;;;;;;;9.55;1.65;;;;;;;2.68;90.60;99731.44;5048346;28;20033;-71
2022/02/21 03:04:08;;;;;;;15.05;1.73;;;;;;;2.55;90.75;99721.41;5057225;28;20033;-71
2022/02/21 03:06:34;;;;;;;13.70;1.80;;;;;;;2.59;91.40;99729.66;5042679;28;20458;-71
2022/02/21 03:09:00;;;;;;;20.08;1.92;;;;;;;2.64;91.33;99725.75;5039845;28;20199;-71
2022/02/21 03:11:26;;;;;;;13.27;2.42;;;;;;;2.67;91.12;99714.44;5036113;28;20041;-71
2022/02/21 03:13:52;;;;;;;20.83;2.53;;;;;;;2.84;90.77;99721.47;5040580;28;20029;-70
2022/02/21 03:16:17;;;;;;;14.98;2.53;;;;;;;2.91;90.91;99712.31;5037662;28;20124;-71
2022/02/21 03:18:44;;;;;;;14.88;2.40;;;;;;;2.89;90.99;99710.84;5038276;28;20740;-72
2022/02/21 03:21:09;;;;;;;16.08;2.83;;;;;;;2.89;91.45;99721.88;5038094;28;20133;-72
2022/02/21 03:23:35;;;;;;;18.10;1.80;;;;;;;3.04;91.39;99719.75;5045704;28;20047;-72
2022/02/21 03:26:00;;;;;;;15.00;2.63;;;;;;;3.01;91.50;99721.78;5038192;28;20653;-72
2022/02/21 03:28:26;;;;;;;20.10;2.58;;;;;;;3.11;89.79;99722.59;5041480;28;20041;-71
2022/02/21 03:30:53;;;;;;;19.65;2.95;;;;;;;3.23;89.90;99731.75;5028092;28;20029;-71
2022/02/21 03:33:18;;;;;;;11.00;1.50;;;;;;;3.32;86.93;99725.03;5026526;28;20029;-70
2022/02/21 03:35:44;;;;;;;11.88;1.25;;;;;;;3.33;80.68;99736.09;5024969;28;20726;-72
2022/02/21 03:38:09;;;;;;;7.82;1.10;;;;;;;3.32;79.21;99740.41;5021589;28;20041;-71
2022/02/21 03:40:35;;;;;;;8.02;1.00;;;;;;;3.11;81.37;99756.72;5032546;28;20041;-70
2022/02/21 03:43:00;;;;;;;5.40;0.80;;;;;;;2.98;80.91;99745.91;5022083;28;20032;-71
2022/02/21 03:45:26;;;;;;;2.03;0.70;;;;;;;2.96;82.33;99744.41;5031539;28;20028;-71
2022/02/21 03:47:53;;;;;;;7.05;1.17;;;;;;;2.89;82.51;99733.88;5033352;28;20051;-70
2022/02/21 03:50:19;;;;;;;6.80;0.80;;;;;;;2.90;83.35;99741.44;5028983;28;20042;-70
2022/02/21 03:52:44;;;;;;;5.50;1.02;;;;;;;2.88;82.96;99751.03;5023941;28;20060;-71
2022/02/21 03:55:11;;;;;;;10.23;1.58;;;;;;;2.88;83.13;99758.69;5028827;28;20212;-68
2022/02/21 03:57:37;;;;;;;4.05;0.88;;;;;;;2.78;83.58;99757.06;5020533;28;20557;-69
2022/02/21 04:00:06;;;;;;;12.23;1.13;;;;;;;2.85;83.44;99756.38;5025548;28;20028;-69
2022/02/21 04:02:37;;;;;;;4.28;0.90;;;;;;;2.82;83.43;99763.53;5022301;28;20526;-68
2022/02/21 04:05:04;;;;;;;8.45;1.52;;;;;;;2.90;83.15;99771.34;5019613;28;20061;-68
2022/02/21 04:07:29;;;;;;;7.90;0.98;;;;;;;2.80;83.93;99768.78;5022239;28;20037;-68
2022/02/21 04:09:55;;;;;;;9.57;1.73;;;;;;;2.77;84.53;99774.16;5014174;28;20533;-68
2022/02/21 04:12:21;;;;;;;11.27;2.58;;;;;;;2.81;84.48;99772.16;5020616;28;20063;-68
2022/02/21 04:14:46;;;;;;;7.13;1.77;;;;;;;2.82;84.55;99786.56;5019001;28;20033;-68
2022/02/21 04:17:13;;;;;;;15.07;1.77;;;;;;;2.65;85.77;99781.13;5018449;28;20458;-68
2022/02/21 04:19:39;;;;;;;7.88;1.77;;;;;;;2.70;86.20;99781.53;5020272;28;20026;-68
2022/02/21 04:22:09;;;;;;;12.00;1.90;;;;;;;2.75;85.82;99799.09;5023549;28;20034;-68
2022/02/21 04:24:35;;;;;;;8.20;1.75;;;;;;;2.70;86.55;99808.91;5001661;28;20052;-68
2022/02/21 04:27:00;;;;;;;18.40;2.80;;;;;;;2.65;87.41;99822.06;5015800;28;20491;-69
2022/02/21 04:29:26;;;;;;;14.65;2.08;;;;;;;2.63;88.22;99813.72;5000751;28;20472;-68
2022/02/21 04:31:51;;;;;;;22.23;3.88;;;;;;;2.61;89.11;99792.56;5020247;28;20079;-68
2022/02/21 04:34:17;;;;;;;19.17;4.00;;;;;;;2.61;88.56;99791.75;5020949;28;20041;-68
2022/02/21 04:36:42;;;;;;;20.50;3.08;;;;;;;2.55;89.53;99784.59;5015614;28;20048;-68
2022/02/21 04:39:08;;;;;;;15.27;2.42;;;;;;;2.65;89.58;99777.75;5015015;28;20682;-69
2022/02/21 04:41:33;;;;;;;21.58;3.90;;;;;;;2.64;89.32;99792.31;5014522;28;20030;-68
2022/02/21 04:44:00;;;;;;;18.33;2.88;;;;;;;2.66;89.47;99802.44;5017487;28;20060;-68
2022/02/21 04:46:25;;;;;;;27.88;3.10;;;;;;;2.67;89.93;99792.03;5022674;28;20076;-68
2022/02/21 04:48:51;;;;;;;16.55;2.50;;;;;;;2.76;88.97;99797.34;5021511;28;20112;-69
2022/02/21 04:51:16;;;;;;;15.52;2.83;;;;;;;2.81;88.73;99787.53;5018811;28;20026;-68
2022/02/21 04:53:42;;;;;;;15.55;2.90;;;;;;;2.81;88.25;99777.28;5019603;28;20041;-68
2022/02/21 04:56:07;;;;;;;19.50;2.50;;;;;;;2.88;86.88;99796.28;5012053;28;20030;-68
2022/02/21 04:58:33;;;;;;;19.00;2.33;;;;;;;2.92;87.55;99795.09;4999693;28;20396;-68
2022/02/21 05:00:58;;;;;;;18.83;1.95;;;;;;;2.90;86.64;99825.13;5016422;28;20492;-68
2022/02/21 05:03:24;;;;;;;26.00;2.22;;;;;;;2.89;87.02;99811.53;5018622;28;20049;-69
2022/02/21 05:05:49;;;;;;;17.95;2.42;;;;;;;2.74;87.59;99820.50;5013330;28;20033;-68
2022/02/21 05:08:15;;;;;;;20.35;2.67;;;;;;;2.77;88.19;99822.81;5022115;28;20664;-68
2022/02/21 05:10:40;;;;;;;19.38;2.60;;;;;;;2.76;87.43;99817.81;5032409;28;20034;-68
2022/02/21 05:13:06;;;;;;;16.42;2.30;;;;;;;2.74;87.87;99828.19;5018403;28;20745;-68
2022/02/21 05:15:31;;;;;;;12.93;1.92;;;;;;;2.72;87.77;99824.94;5016240;28;20041;-68
2022/02/21 05:17:57;;;;;;;12.05;2.10;;;;;;;2.62;88.35;99832.59;5017939;28;20044;-68
2022/02/21 05:20:22;;;;;;;12.77;2.22;;;;;;;2.54;89.43;99845.19;5013740;28;20037;-68
2022/02/21 05:22:48;;;;;;;18.83;2.33;;;;;;;2.52;90.02;99849.63;5008179;28;20072;-68
2022/02/21 05:25:14;;;;;;;17.90;2.65;;;;;;;2.41;91.29;99850.53;5017129;28;20044;-68
2022/02/21 05:27:40;;;;;;;19.77;2.58;;;;;;;2.38;91.36;99855.09;5018009;28;20048;-68
2022/02/21 05:30:08;;;;;;;10.55;2.05;;;;;;;2.30;91.49;99855.72;5013709;28;20703;-68
2022/02/21 05:32:34;;;;;;;8.80;1.75;;;;;;;2.37;91.16;99843.22;5013686;28;20132;-68
2022/02/21 05:35:00;;;;;;;20.00;2.58;;;;;;;2.19;92.08;99825.91;5016391;28;20484;-68
2022/02/21 05:37:25;;;;;;;8.63;2.35;;;;;;;2.11;92.04;99813.75;5021571;28;20052;-68
2022/02/21 05:39:51;;;;;;;10.10;1.70;;;;;;;1.99;92.49;99831.81;5014465;28;20042;-69
2022/02/21 05:42:16;;;;;;;16.15;2.00;;;;;;;2.10;92.53;99812.09;5007625;28;20041;-68
2022/02/21 05:44:42;;;;;;;14.45;2.10;;;;;;;2.06;92.63;99815.03;5016653;28;20088;-68
2022/02/21 05:47:07;;;;;;;9.60;1.90;;;;;;;2.06;92.00;99805.63;5013771;28;20171;-68
2022/02/21 05:49:33;;;;;;;13.88;1.83;;;;;;;2.02;91.79;99831.59;5031443;28;20037;-68
2022/02/21 05:51:59;;;;;;;14.05;1.73;;;;;;;1.91;92.33;99830.69;5020363;28;20037;-69
2022/02/21 05:54:25;;;;;;;16.77;1.80;;;;;;;1.74;92.88;99844.00;5010156;28;20503;-69
2022/02/21 05:56:50;;;;;;;9.85;1.70;;;;;;;1.49;93.77;99856.19;5023962;28;20036;-69
2022/02/21 05:59:17;;;;;;;7.30;1.83;;;;;;;1.20;94.06;99855.88;5028462;28;20116;-69
2022/02/21 06:01:42;;;;;;;5.47;1.08;;;;;;;0.91;94.58;99828.28;5026955;28;20052;-70
2022/02/21 06:04:08;;;;;;;3.88;0.73;;;;;;;0.81;95.43;99812.06;5022866;28;20069;-69
2022/02/21 06:06:35;;;;;;;11.05;1.40;;;;;;;0.87;95.38;99796.28;5016400;28;20112;-70
2022/02/21 06:09:02;;;;;;;3.53;1.20;;;;;;;0.86;96.11;99804.06;5028120;28;20026;-69
2022/02/21 06:11:27;;;;;;;6.57;1.13;;;;;;;0.93;96.07;99806.00;5019714;28;20037;-69
2022/02/21 06:13:53;;;;;;;5.50;1.23;;;;;;;1.01;95.90;99807.97;5016705;28;20061;-69
2022/02/21 06:16:19;;;;;;;8.55;1.90;;;;;;;1.02;96.15;99803.66;5009817;28;20028;-69
2022/02/21 06:18:44;;;;;;;6.40;1.50;;;;;;;1.10;96.04;99801.34;5019525;28;20036;-69
2022/02/21 06:21:09;;;;;;;15.43;2.60;;;;;;;1.05;95.98;99801.69;5016346;28;20033;-69
2022/02/21 06:23:35;;;;;;;12.13;2.45;;;;;;;1.09;96.05;99805.66;5023072;28;20045;-69
2022/02/21 06:26:02;;;;;;;7.07;2.10;;;;;;;1.15;96.24;99812.84;5016944;28;20033;-69
2022/02/21 06:28:28;;;;;;;10.57;2.15;;;;;;;1.14;95.96;99813.75;5012962;28;20145;-69
2022/02/21 06:30:54;;;;;;;11.05;2.33;;;;;;;1.16;95.81;99816.19;5014443;28;20042;-69
2022/02/21 06:33:19;;;;;;;19.25;3.28;;;;;;;1.25;95.80;99819.78;5027883;28;20047;-69
2022/02/21 06:35:45;;;;;;;18.13;2.35;;;;;;;1.28;95.81;99814.41;5019386;28;20057;-69
2022/02/21 06:38:11;;;;;;;20.85;2.85;;;;;;;1.38;95.10;99802.56;5020938;28;20033;-69
2022/02/21 06:40:37;;;;;;;14.10;3.03;;;;;;;1.34;95.14;99801.97;5017003;28;20053;-68
2022/02/21 06:43:02;;;;;;;15.93;2.67;;;;;;;1.41;94.89;99799.75;5003141;28;20778;-69
2022/02/21 06:45:28;;;;;;;11.45;2.17;;;;;;;1.46;94.46;99800.19;4997852;28;20226;-69
2022/02/21 06:47:55;;;;;;;15.45;2.35;;;;;;;1.49;94.39;99797.41;5032733;23;20034;-69
2022/02/21 06:50:21;;;;;;;19.55;3.08;;;;;;;1.65;93.44;99796.19;5008331;28;20025;-70
2022/02/21 06:52:46;;;;;;;23.90;3.08;;;;;;;1.61;93.75;99799.94;5007993;28;20048;-70
2022/02/21 06:55:13;;;;;;;20.48;2.88;;;;;;;1.70;93.07;99805.09;5005275;28;20030;-70
2022/02/21 06:57:43;;;;;;;21.83;2.95;;;;;;;1.77;92.79;99802.84;5008278;28;20046;-70
2022/02/21 07:00:09;;;;;;;24.00;4.25;;;;;;;1.84;92.53;99806.53;4985589;28;20045;-70
2022/02/21 07:02:35;;;;;;;24.88;3.25;;;;;;;1.87;92.01;99805.50;5001926;28;20037;-70
2022/02/21 07:05:01;;;;;;;25.17;3.60;;;;;;;1.84;92.17;99806.53;5003127;28;20439;-70
2022/02/21 07:07:27;;;;;;;20.60;3.30;;;;;;;1.94;91.54;99802.31;5005392;28;20045;-70
2022/02/21 07:09:52;;;;;;;36.92;6.43;;;;;;;2.10;90.59;99811.28;5003863;28;20041;-70
2022/02/21 07:12:18;;;;;;;20.77;4.53;;;;;;;2.10;90.74;99814.66;5005326;28;20037;-72
2022/02/21 07:14:44;;;;;;;29.55;3.45;;;;;;;2.17;89.97;99807.31;5004216;28;20033;-70
2022/02/21 07:17:09;;;;;;;22.13;4.40;;;;;;;2.19;89.77;99810.53;5001489;28;20036;-70
2022/02/21 07:19:35;;;;;;;14.35;2.55;;;;;;;2.13;89.86;99803.38;5002214;28;20034;-70
2022/02/21 07:22:00;;;;;;;24.85;3.70;;;;;;;2.29;89.09;99811.41;5003987;28;20036;-70
2022/02/21 07:24:27;;;;;;;22.20;2.20;;;;;;;2.40;88.43;99817.41;5001034;28;20044;-70
2022/02/21 07:26:52;;;;;;;24.55;4.82;;;;;;;2.46;87.96;99824.56;5004187;28;20073;-70
2022/02/21 07:29:18;;;;;;;17.63;2.58;;;;;;;2.46;87.35;99812.56;5001246;28;20164;-70
2022/02/21 07:31:43;;;;;;;21.50;2.88;;;;;;;2.47;86.98;99811.63;5003790;28;20038;-70
2022/02/21 07:34:09;;;;;;;16.52;3.40;;;;;;;2.60;87.12;99808.88;4993984;28;20038;-70
2022/02/21 07:36:35;;;;;;;23.80;2.45;;;;;;;2.72;86.81;99801.91;5022650;28;20042;-70
2022/02/21 07:39:01;;;;;;;20.20;2.72;;;;;;;2.68;85.53;99801.34;5010892;28;20030;-70
2022/02/21 07:41:28;;;;;;;19.45;2.35;;;;;;;2.71;85.22;99790.03;5007944;28;20049;-70
2022/02/21 07:43:54;;;;;;;21.40;2.08;;;;;;;2.82;85.01;99805.28;5011353;28;20041;-70
2022/02/21 07:46:19;;;;;;;22.00;2.70;;;;;;;2.90;84.69;99815.72;5006367;28;20044;-70
2022/02/21 07:48:45;;;;;;;13.23;2.72;;;;;;;2.87;84.24;99798.03;5008467;28;20593;-70
2022/02/21 07:51:10;;;;;;;14.80;2.40;;;;;;;2.91;83.46;99808.84;5021737;28;20041;-70
2022/02/21 07:53:36;;;;;;;19.63;2.40;;;;;;;2.97;83.84;99804.94;5017185;28;20052;-70
2022/02/21 07:56:01;;;;;;;15.43;2.65;;;;;;;3.02;82.15;99790.00;5009743;28;20115;-70
2022/02/21 07:58:27;;;;;;;15.90;1.95;;;;;;;3.11;81.50;99799.47;5017407;28;20046;-70
2022/02/21 08:00:52;;;;;;;17.13;1.63;;;;;;;3.15;81.41;99800.81;5019657;28;20041;-70
2022/02/21 08:03:18;;;;;;;17.20;1.90;;;;;;;3.10;81.57;99806.31;5006983;28;20495;-70
2022/02/21 08:05:44;;;;;;;14.10;2.28;;;;;;;3.18;80.99;99808.22;5011074;28;20260;-70
2022/02/21 08:08:09;;;;;;;15.00;2.10;;;;;;;3.33;80.58;99789.91;5011501;28;20503;-70
2022/02/21 08:10:36;;;;;;;18.98;2.20;;;;;;;3.31;80.19;99805.41;5008518;28;20045;-70
2022/02/21 08:13:02;;;;;;;13.30;1.90;;;;;;;3.31;79.84;99792.59;5017491;28;20594;-70
2022/02/21 08:15:28;;;;;;;20.80;2.35;;;;;;;3.34;79.21;99782.09;5007957;28;20037;-70
2022/02/21 08:17:54;;;;;;;15.35;1.80;;;;;;;3.50;78.97;99781.53;5005797;28;20026;-70
2022/02/21 08:20:21;;;;;;;18.50;3.17;;;;;;;3.71;77.61;99807.03;5008686;28;20137;-70
2022/02/21 08:22:47;;;;;;;13.48;1.73;;;;;;;3.98;76.24;99790.97;5007450;28;20045;-69
2022/02/21 08:25:14;;;;;;;15.80;2.67;;;;;;;4.28;75.73;99795.06;5009644;28;20498;-70
2022/02/21 08:27:41;;;;;;;10.10;1.67;;;;;;;4.46;74.75;99794.34;5009349;28;20473;-70
2022/02/21 08:30:10;;;;;;;14.82;2.00;;;;;;;4.56;73.00;99786.59;4987234;28;20038;-70
2022/02/21 08:32:36;;;;;;;13.23;2.58;;;;;;;4.55;74.01;99788.34;4993265;28;20041;-70
2022/02/21 08:35:02;;;;;;;16.83;2.22;;;;;;;4.97;72.20;99789.63;5006513;28;20030;-70
2022/02/21 08:37:28;;;;;;;7.53;2.80;;;;;;;5.43;70.08;99775.81;5009436;28;20048;-70
2022/02/21 08:39:54;;;;;;;12.85;1.58;;;;;;;5.76;69.07;99790.69;5007513;28;20038;-70
2022/02/21 08:42:19;;;;;;;8.38;1.60;;;;;;;5.92;68.30;99790.81;5007762;28;20048;-70
2022/02/21 08:44:45;;;;;;;10.18;1.58;;;;;;;5.87;67.18;99777.59;5007144;28;20030;-70
2022/02/21 08:47:10;;;;;;;7.65;1.48;;;;;;;6.24;67.80;99774.00;5010587;28;20068;-70
2022/02/21 08:49:36;;;;;;;13.02;2.00;;;;;;;6.11;66.44;99769.25;5006396;28;20037;-70
2022/02/21 08:52:01;;;;;;;9.13;1.80;;;;;;;6.09;65.74;99778.91;5007031;28;20794;-70
2022/02/21 08:54:27;;;;;;;14.10;2.60;;;;;;;6.20;65.88;99786.38;5004302;28;20091;-70
2022/02/21 08:56:52;;;;;;;11.27;1.80;;;;;;;6.29;64.74;99776.09;5004849;28;20081;-70
2022/02/21 08:59:18;;;;;;;15.43;1.98;;;;;;;6.40;65.66;99781.00;5004040;28;20042;-70
2022/02/21 09:01:45;;;;;;;12.20;1.88;;;;;;;6.56;64.95;99775.91;5002845;28;20039;-70
2022/02/21 09:04:11;;;;;;;14.02;1.83;;;;;;;6.64;64.46;99780.28;4999012;28;20084;-70
2022/02/21 09:06:37;;;;;;;11.82;1.45;;;;;;;6.26;64.41;99781.56;5001229;28;20099;-70
2022/02/21 09:09:03;;;;;;;10.80;2.58;;;;;;;6.04;66.06;99771.63;4997843;28;20029;-70
2022/02/21 09:11:29;;;;;;;11.68;1.88;;;;;;;5.74;66.63;99772.81;5008662;28;20553;-70
2022/02/21 09:13:55;;;;;;;23.50;2.45;;;;;;;5.40;68.00;99759.84;5009494;28;20030;-69
2022/02/21 09:16:21;;;;;;;16.25;1.83;;;;;;;5.25;68.55;99759.56;5009084;28;20065;-70
2022/02/21 09:18:47;;;;;;;14.50;1.80;;;;;;;5.15;69.01;99756.28;4996939;28;20139;-70
2022/02/21 09:21:12;;;;;;;9.50;1.50;;;;;;;5.01;69.43;99750.69;5007093;28;20034;-70
2022/02/21 09:23:38;;;;;;;21.70;1.70;;;;;;;4.85;70.68;99747.94;5005732;28;20045;-70
2022/02/21 09:26:03;;;;;;;16.77;2.00;;;;;;;4.84;69.78;99739.44;5005709;28;20037;-69
2022/02/21 09:28:29;;;;;;;7.32;1.77;;;;;;;4.86;70.00;99732.38;5006410;28;20041;-69
2022/02/21 09:30:55;;;;;;;8.55;2.40;;;;;;;4.82;70.14;99712.25;5020684;28;20046;-69
2022/02/21 09:33:24;;;;;;;12.57;2.03;;;;;;;4.81;69.73;99715.78;5002327;28;20049;-69
2022/02/21 09:35:50;;;;;;;17.83;2.28;;;;;;;4.93;70.51;99713.81;5019638;28;20041;-70
2022/02/21 09:38:16;;;;;;;16.58;2.10;;;;;;;4.80;70.41;99721.88;5002759;28;20048;-70
2022/02/21 09:40:44;;;;;;;18.60;2.20;;;;;;;4.84;70.10;99713.75;5004616;28;20120;-69
2022/02/21 09:43:13;;;;;;;19.33;2.10;;;;;;;4.83;70.81;99714.69;5008201;28;20048;-70
2022/02/21 09:45:42;;;;;;;19.20;1.98;;;;;;;4.71;71.62;99715.84;5003500;28;20388;-70
2022/02/21 09:48:11;;;;;;;18.75;2.58;;;;;;;4.74;71.84;99712.97;4984984;28;20525;-70
2022/02/21 09:50:37;;;;;;;19.20;2.28;;;;;;;4.70;73.35;99703.16;5004426;28;20096;-70
2022/02/21 09:53:04;;;;;;;13.25;1.75;;;;;;;4.64;73.31;99697.63;5004046;28;20037;-69
2022/02/21 09:55:32;;;;;;;22.85;1.83;;;;;;;4.61;74.42;99694.53;5003375;28;20077;-70
2022/02/21 09:57:58;;;;;;;15.10;2.53;;;;;;;4.65;74.17;99676.16;5006647;28;20036;-70
2022/02/21 10:00:24;;;;;;;18.73;2.47;;;;;;;4.70;75.16;99673.13;5016479;28;20038;-70
2022/02/21 10:02:51;;;;;;;16.13;2.22;;;;;;;4.77;74.01;99674.16;5002872;28;20176;-70
2022/02/21 10:05:28;;;;;;;16.10;2.38;;;;;;;4.74;73.87;99676.22;5009818;28;20387;-70
2022/02/21 10:07:55;;;;;;;25.52;3.63;;;;;;;4.80;75.00;99668.75;5007885;28;20060;-70
2022/02/21 10:10:25;;;;;;;16.90;2.25;;;;;;;4.75;75.49;99677.84;5007161;28;20139;-70
2022/02/21 10:12:58;;;;;;;13.88;2.20;;;;;;;4.68;76.81;99680.19;5014939;28;20050;-70
2022/02/21 10:15:29;;;;;;;16.50;2.92;;;;;;;4.62;77.96;99691.03;5004789;28;20116;-70
2022/02/21 10:18:18;;;;;;;19.95;2.15;;;;;;;4.31;81.11;99685.38;5004488;28;20048;-71
2022/02/21 10:20:58;;;;;;;19.63;3.30;;;;;;;4.14;84.09;99692.88;5002702;28;20142;-71
2022/02/21 10:23:33;;;;;;;16.95;3.42;;;;;;;4.07;84.42;99669.53;5005172;28;20040;-71
2022/02/21 10:26:04;;;;;;;19.15;2.63;;;;;;;3.98;86.03;99667.03;5000385;28;20042;-71
2022/02/21 10:28:40;;;;;;;15.07;2.05;;;;;;;3.83;87.32;99676.94;5005168;28;20038;-71
2022/02/21 10:31:16;;;;;;;14.02;2.35;;;;;;;3.67;88.56;99670.63;5002576;28;20041;-71
2022/02/21 10:33:47;;;;;;;22.42;2.58;;;;;;;3.64;88.52;99667.53;5002090;28;20061;-70
2022/02/21 10:36:36;;;;;;;16.30;3.00;;;;;;;3.65;89.54;99664.81;5002405;28;20044;-70
2022/02/21 10:39:10;;;;;;;14.82;1.90;;;;;;;3.63;90.36;99661.56;5001378;28;20068;-70
2022/02/21 10:41:57;;;;;;;15.48;2.00;;;;;;;3.62;90.65;99667.66;5004831;28;20133;-70
2022/02/21 10:44:24;;;;;;;14.38;2.08;;;;;;;3.80;91.24;99641.28;5017347;28;20037;-70
2022/02/21 10:47:09;;;;;;;13.82;2.13;;;;;;;3.94;89.99;99634.88;5007418;28;20033;-70
2022/02/21 10:49:38;;;;;;;20.17;2.53;;;;;;;3.93;90.38;99646.91;5004070;28;20050;-70
2022/02/21 10:52:10;;;;;;;22.73;2.65;;;;;;;4.02;90.59;99638.38;5007480;28;20065;-70
2022/02/21 10:54:37;;;;;;;24.67;3.25;;;;;;;4.16;90.60;99646.53;5002279;28;20064;-70
2022/02/21 10:57:07;;;;;;;19.58;5.65;;;;;;;4.17;90.35;99640.47;5009466;28;20037;-70
2022/02/21 10:59:32;;;;;;;20.67;2.70;;;;;;;4.13;90.00;99634.81;5007838;28;20038;-70
2022/02/21 11:02:00;;;;;;;18.40;2.40;;;;;;;4.00;90.06;99640.28;5006330;28;20038;-70
2022/02/21 11:04:27;;;;;;;23.92;3.38;;;;;;;3.95;91.14;99627.06;5006361;28;20048;-71
2022/02/21 11:06:54;;;;;;;24.75;3.10;;;;;;;3.92;91.75;99617.09;5010841;28;20045;-71
2022/02/21 11:09:23;;;;;;;25.80;2.90;;;;;;;3.89;91.67;99637.88;5003444;28;20053;-70
2022/02/21 11:11:50;;;;;;;18.35;3.42;;;;;;;3.91;91.92;99618.03;5004201;28;20034;-70
2022/02/21 11:14:23;;;;;;;18.77;3.05;;;;;;;3.90;91.87;99601.84;5005469;28;20050;-70
2022/02/21 11:16:49;;;;;;;24.08;2.85;;;;;;;3.96;91.99;99595.34;5019440;28;20736;-70
2022/02/21 11:19:16;;;;;;;21.52;3.08;;;;;;;4.06;92.15;99608.13;5001357;28;20100;-70
2022/02/21 11:21:43;;;;;;;25.27;3.78;;;;;;;4.15;91.69;99599.56;5003091;28;20685;-71
2022/02/21 11:24:10;;;;;;;18.30;2.70;;;;;;;4.13;92.19;99605.78;5003904;28;20447;-70
2022/02/21 11:26:40;;;;;;;16.38;2.40;;;;;;;4.12;91.70;99584.44;5002237;28;20037;-70
2022/02/21 11:29:10;;;;;;;15.85;2.38;;;;;;;4.14;92.14;99599.69;5001288;28;20036;-70
2022/02/21 11:31:40;;;;;;;15.73;2.20;;;;;;;4.04;92.11;99592.84;5000389;28;20088;-71